Ora Direzione Vento Velocita' Vento Media Vento Raffica Max. Temperatura Wind Chill Pioggia Pressione
22:49:13.00 °(N)3.8 Kts1.33 Kts12.2 Kts6.6 °C5.32 °C0.0 mm1002.3 Hpa
22:28:28.00 °(N)0.8 Kts0.6 Kts12.2 Kts6.1 °C7.42 °C0.0 mm1005.2 Hpa
22:07:45.00 °(N)0.7 Kts1.13 Kts12.2 Kts6.0 °C7.5 °C0.0 mm1002.3 Hpa
21:49:09.00 °(N)0.0 Kts0.4 Kts12.2 Kts6.0 °C16.84 °C0.0 mm1005.2 Hpa
21:28:27.00 °(N)0.7 Kts0.76 Kts12.2 Kts6.0 °C7.5 °C0.0 mm1005.6 Hpa
21:07:43.00 °(N)1.2 Kts0.23 Kts12.2 Kts5.9 °C6.67 °C0.0 mm1002.7 Hpa
20:49:08.00 °(N)0.4 Kts0.13 Kts12.2 Kts5.9 °C8.12 °C0.0 mm1003.6 Hpa
20:28:24.00 °(N)0.5 Kts0.0 Kts12.2 Kts5.6 °C7.54 °C0.0 mm1004.0 Hpa
20:07:40.00 °(N)0.0 Kts0.0 Kts12.2 Kts5.8 °C16.72 °C0.0 mm1003.6 Hpa
19:49:07.00 °(N)0.8 Kts0.16 Kts12.2 Kts5.8 °C7.11 °C0.0 mm999.9 Hpa
19:28:25.00 °(N)0.0 Kts0.0 Kts12.2 Kts5.8 °C16.72 °C0.0 mm1001.1 Hpa
19:07:45.00 °(N)0.0 Kts0.1 Kts12.2 Kts5.6 °C16.6 °C0.0 mm1004.0 Hpa
18:49:09.00 °(N)0.0 Kts0.7 Kts12.2 Kts5.3 °C16.41 °C0.0 mm1006.0 Hpa
18:28:22.00 °(N)0.0 Kts0.0 Kts12.2 Kts5.1 °C16.28 °C0.0 mm1004.0 Hpa
18:07:38.00 °(N)0.0 Kts0.63 Kts12.2 Kts6.0 °C16.84 °C0.0 mm1004.0 Hpa
17:49:01.00 °(N)0.5 Kts0.56 Kts12.2 Kts6.9 °C8.86 °C0.0 mm1000.7 Hpa
17:28:17.00 °(N)1.2 Kts1.5 Kts12.2 Kts6.9 °C7.74 °C0.0 mm1004.4 Hpa
17:07:30.0335 °(NNW)2.1 Kts1.23 Kts12.2 Kts7.4 °C7.34 °C0.0 mm1005.2 Hpa
16:48:49.0322 °(NW)0.9 Kts1.83 Kts12.2 Kts8.0 °C9.24 °C0.0 mm1004.0 Hpa
16:27:58.0327 °(NNW)0.8 Kts0.73 Kts12.2 Kts9.1 °C10.55 °C0.0 mm1002.3 Hpa